KMFR

Rogue Valley International - Medford Airport

Medford, Oregon, USA
METAR KMFR 201553Z 00000KT 6SM FU CLR 17/08 A3002 RMK AO2 SLP157 T01720078
Observed Flight Rules
Aug-20 @ 15:53 UTC (33 minutes ago) Visual Flight Rules
Visibility Clouds Conditions
6 miles
  • Clear skies
  • Smoke
Temperatures Readings
Current 17°C / 63°F
Dewpoint 8°C / 46°F
Humidity 56%
Altimeter 30.02" Hg
Pressure 1015.7 hPa
Elevation 396
METAR KMFR 201553Z 00000KT 6SM FU CLR 17/08 A3002 RMK AO2 SLP157 T01720078
Observed Flight Rules
Aug-20 @ 15:53 UTC
(33 minutes ago)
VFR
Clouds
  • Clear skies
Conditions
  • Smoke
Temperature Dewpoint
17°C / 63°F 8°C / 46°F
Humidity Altimeter Pressure
56% 30.02" Hg 1015.7 hPa